sensor_id;sensor_type;location;lat;lon;timestamp;temperature;humidity
5881;DHT22;2966;52.598;10.928;2023-04-15T00:01:58;6.70;99.90
5881;DHT22;2966;52.598;10.928;2023-04-15T00:04:27;6.70;99.90
5881;DHT22;2966;52.598;10.928;2023-04-15T00:06:56;6.70;99.90
5881;DHT22;2966;52.598;10.928;2023-04-15T00:09:22;6.70;99.90
5881;DHT22;2966;52.598;10.928;2023-04-15T00:11:52;6.70;99.90
5881;DHT22;2966;52.598;10.928;2023-04-15T00:14:19;6.70;99.90
5881;DHT22;2966;52.598;10.928;2023-04-15T00:16:46;6.70;99.90
5881;DHT22;2966;52.598;10.928;2023-04-15T00:19:19;6.70;99.90
5881;DHT22;2966;52.598;10.928;2023-04-15T00:21:47;6.70;99.90
5881;DHT22;2966;52.598;10.928;2023-04-15T00:24:14;6.70;99.90
5881;DHT22;2966;52.598;10.928;2023-04-15T00:26:40;6.70;99.90
5881;DHT22;2966;52.598;10.928;2023-04-15T00:29:07;6.70;99.90
5881;DHT22;2966;52.598;10.928;2023-04-15T00:31:35;6.70;99.90
5881;DHT22;2966;52.598;10.928;2023-04-15T00:34:02;6.80;99.90
5881;DHT22;2966;52.598;10.928;2023-04-15T00:36:29;6.80;99.90
5881;DHT22;2966;52.598;10.928;2023-04-15T00:38:57;6.80;99.90
5881;DHT22;2966;52.598;10.928;2023-04-15T00:41:25;6.80;99.90
5881;DHT22;2966;52.598;10.928;2023-04-15T00:43:53;6.80;99.90
5881;DHT22;2966;52.598;10.928;2023-04-15T00:46:20;6.70;99.90
5881;DHT22;2966;52.598;10.928;2023-04-15T00:48:47;6.80;99.90
5881;DHT22;2966;52.598;10.928;2023-04-15T00:51:15;6.80;99.90
5881;DHT22;2966;52.598;10.928;2023-04-15T00:53:42;6.80;99.90
5881;DHT22;2966;52.598;10.928;2023-04-15T00:56:10;6.80;99.90
5881;DHT22;2966;52.598;10.928;2023-04-15T00:58:37;6.70;99.90
5881;DHT22;2966;52.598;10.928;2023-04-15T01:01:04;6.70;99.90
5881;DHT22;2966;52.598;10.928;2023-04-15T01:03:30;6.70;99.90
5881;DHT22;2966;52.598;10.928;2023-04-15T01:05:57;6.70;99.90
5881;DHT22;2966;52.598;10.928;2023-04-15T01:08:26;6.70;99.90
5881;DHT22;2966;52.598;10.928;2023-04-15T01:10:53;6.70;99.90
5881;DHT22;2966;52.598;10.928;2023-04-15T01:13:22;6.70;99.90
5881;DHT22;2966;52.598;10.928;2023-04-15T01:15:49;6.80;99.90
5881;DHT22;2966;52.598;10.928;2023-04-15T01:18:17;6.70;99.90
5881;DHT22;2966;52.598;10.928;2023-04-15T01:20:47;6.70;99.90
5881;DHT22;2966;52.598;10.928;2023-04-15T01:23:14;6.70;99.90
5881;DHT22;2966;52.598;10.928;2023-04-15T01:25:43;6.70;99.90
5881;DHT22;2966;52.598;10.928;2023-04-15T01:28:11;6.70;99.90
5881;DHT22;2966;52.598;10.928;2023-04-15T01:30:37;6.70;99.90
5881;DHT22;2966;52.598;10.928;2023-04-15T01:33:04;6.70;99.90
5881;DHT22;2966;52.598;10.928;2023-04-15T01:35:31;6.60;99.90
5881;DHT22;2966;52.598;10.928;2023-04-15T01:38:04;6.70;99.90
5881;DHT22;2966;52.598;10.928;2023-04-15T01:40:32;6.70;99.90
5881;DHT22;2966;52.598;10.928;2023-04-15T01:43:00;6.70;99.90
5881;DHT22;2966;52.598;10.928;2023-04-15T01:45:28;6.60;99.90
5881;DHT22;2966;52.598;10.928;2023-04-15T01:47:55;6.60;99.90
5881;DHT22;2966;52.598;10.928;2023-04-15T01:50:22;6.60;99.90
5881;DHT22;2966;52.598;10.928;2023-04-15T01:52:50;6.60;99.90
5881;DHT22;2966;52.598;10.928;2023-04-15T01:55:17;6.60;99.90
5881;DHT22;2966;52.598;10.928;2023-04-15T01:57:43;6.60;99.90
5881;DHT22;2966;52.598;10.928;2023-04-15T02:00:12;6.60;99.90
5881;DHT22;2966;52.598;10.928;2023-04-15T02:02:39;6.60;99.90
5881;DHT22;2966;52.598;10.928;2023-04-15T02:05:06;6.60;99.90
5881;DHT22;2966;52.598;10.928;2023-04-15T02:07:33;6.50;99.90
5881;DHT22;2966;52.598;10.928;2023-04-15T02:10:00;6.50;99.90
5881;DHT22;2966;52.598;10.928;2023-04-15T02:12:31;6.60;99.90
5881;DHT22;2966;52.598;10.928;2023-04-15T02:14:58;6.50;99.90
5881;DHT22;2966;52.598;10.928;2023-04-15T02:17:26;6.60;99.90
5881;DHT22;2966;52.598;10.928;2023-04-15T02:19:54;6.60;99.90
5881;DHT22;2966;52.598;10.928;2023-04-15T02:22:24;6.60;99.90
5881;DHT22;2966;52.598;10.928;2023-04-15T02:24:51;6.60;99.90
5881;DHT22;2966;52.598;10.928;2023-04-15T02:27:18;6.60;99.90
5881;DHT22;2966;52.598;10.928;2023-04-15T02:29:47;6.60;99.90
5881;DHT22;2966;52.598;10.928;2023-04-15T02:32:15;6.60;99.90
5881;DHT22;2966;52.598;10.928;2023-04-15T02:34:44;6.60;99.90
5881;DHT22;2966;52.598;10.928;2023-04-15T02:37:12;6.60;99.90
5881;DHT22;2966;52.598;10.928;2023-04-15T02:39:38;6.60;99.90
5881;DHT22;2966;52.598;10.928;2023-04-15T02:42:05;6.70;99.90
5881;DHT22;2966;52.598;10.928;2023-04-15T02:44:32;6.70;99.90
5881;DHT22;2966;52.598;10.928;2023-04-15T02:47:01;6.60;99.90
5881;DHT22;2966;52.598;10.928;2023-04-15T02:49:36;6.60;99.90
5881;DHT22;2966;52.598;10.928;2023-04-15T02:52:04;6.60;99.90
5881;DHT22;2966;52.598;10.928;2023-04-15T02:54:31;6.60;99.90
5881;DHT22;2966;52.598;10.928;2023-04-15T02:56:58;6.70;99.90
5881;DHT22;2966;52.598;10.928;2023-04-15T02:59:26;6.70;99.90
5881;DHT22;2966;52.598;10.928;2023-04-15T03:01:52;6.70;99.90
5881;DHT22;2966;52.598;10.928;2023-04-15T03:04:20;6.70;99.90
5881;DHT22;2966;52.598;10.928;2023-04-15T03:06:47;6.70;99.90
5881;DHT22;2966;52.598;10.928;2023-04-15T03:09:15;6.70;99.90
5881;DHT22;2966;52.598;10.928;2023-04-15T03:11:42;6.70;99.90
5881;DHT22;2966;52.598;10.928;2023-04-15T03:14:09;6.70;99.90
5881;DHT22;2966;52.598;10.928;2023-04-15T03:16:36;6.70;99.90
5881;DHT22;2966;52.598;10.928;2023-04-15T03:19:02;6.70;99.90
5881;DHT22;2966;52.598;10.928;2023-04-15T03:21:32;6.70;99.90
5881;DHT22;2966;52.598;10.928;2023-04-15T03:23:58;6.70;99.90
5881;DHT22;2966;52.598;10.928;2023-04-15T03:26:28;6.70;99.90
5881;DHT22;2966;52.598;10.928;2023-04-15T03:28:55;6.70;99.90
5881;DHT22;2966;52.598;10.928;2023-04-15T03:31:22;6.70;99.90
5881;DHT22;2966;52.598;10.928;2023-04-15T03:33:48;6.70;99.90
5881;DHT22;2966;52.598;10.928;2023-04-15T03:36:15;6.70;99.90
5881;DHT22;2966;52.598;10.928;2023-04-15T03:38:42;6.70;99.90
5881;DHT22;2966;52.598;10.928;2023-04-15T03:41:09;6.70;99.90
5881;DHT22;2966;52.598;10.928;2023-04-15T03:43:37;6.70;99.90
5881;DHT22;2966;52.598;10.928;2023-04-15T03:46:03;6.70;99.90
5881;DHT22;2966;52.598;10.928;2023-04-15T03:48:30;6.70;99.90
5881;DHT22;2966;52.598;10.928;2023-04-15T03:50:57;6.70;99.90
5881;DHT22;2966;52.598;10.928;2023-04-15T03:53:23;6.70;99.90
5881;DHT22;2966;52.598;10.928;2023-04-15T03:55:50;6.70;99.90
5881;DHT22;2966;52.598;10.928;2023-04-15T03:58:17;6.80;99.90
5881;DHT22;2966;52.598;10.928;2023-04-15T04:00:45;6.80;99.90
5881;DHT22;2966;52.598;10.928;2023-04-15T04:03:11;6.80;99.90
5881;DHT22;2966;52.598;10.928;2023-04-15T04:05:39;6.80;99.90
5881;DHT22;2966;52.598;10.928;2023-04-15T04:08:06;6.80;99.90
5881;DHT22;2966;52.598;10.928;2023-04-15T04:10:32;6.80;99.90
5881;DHT22;2966;52.598;10.928;2023-04-15T04:12:59;6.80;99.90
5881;DHT22;2966;52.598;10.928;2023-04-15T04:15:26;6.80;99.90
5881;DHT22;2966;52.598;10.928;2023-04-15T04:17:54;6.80;99.90
5881;DHT22;2966;52.598;10.928;2023-04-15T04:20:20;6.80;99.90
5881;DHT22;2966;52.598;10.928;2023-04-15T04:22:47;6.80;99.90
5881;DHT22;2966;52.598;10.928;2023-04-15T04:25:14;6.90;99.90
5881;DHT22;2966;52.598;10.928;2023-04-15T04:27:41;6.90;99.90
5881;DHT22;2966;52.598;10.928;2023-04-15T04:30:08;6.80;99.90
5881;DHT22;2966;52.598;10.928;2023-04-15T04:32:34;6.90;99.90
5881;DHT22;2966;52.598;10.928;2023-04-15T04:35:03;6.90;99.90
5881;DHT22;2966;52.598;10.928;2023-04-15T04:37:29;6.90;99.90
5881;DHT22;2966;52.598;10.928;2023-04-15T04:39:56;6.90;99.90
5881;DHT22;2966;52.598;10.928;2023-04-15T04:42:23;6.90;99.90
5881;DHT22;2966;52.598;10.928;2023-04-15T04:44:49;6.90;99.90
5881;DHT22;2966;52.598;10.928;2023-04-15T04:47:17;6.90;99.90
5881;DHT22;2966;52.598;10.928;2023-04-15T04:49:43;6.90;99.90
5881;DHT22;2966;52.598;10.928;2023-04-15T04:52:11;6.90;99.90
5881;DHT22;2966;52.598;10.928;2023-04-15T04:54:38;6.90;99.90
5881;DHT22;2966;52.598;10.928;2023-04-15T04:57:05;7.00;99.90
5881;DHT22;2966;52.598;10.928;2023-04-15T04:59:32;6.90;99.90
5881;DHT22;2966;52.598;10.928;2023-04-15T05:01:59;6.90;99.90
5881;DHT22;2966;52.598;10.928;2023-04-15T05:04:26;6.90;99.90
5881;DHT22;2966;52.598;10.928;2023-04-15T05:06:52;7.00;99.90
5881;DHT22;2966;52.598;10.928;2023-04-15T05:09:20;7.00;99.90
5881;DHT22;2966;52.598;10.928;2023-04-15T05:11:47;7.00;99.90
5881;DHT22;2966;52.598;10.928;2023-04-15T05:14:14;7.00;99.90
5881;DHT22;2966;52.598;10.928;2023-04-15T05:16:42;7.00;99.90
5881;DHT22;2966;52.598;10.928;2023-04-15T05:19:09;7.00;99.90
5881;DHT22;2966;52.598;10.928;2023-04-15T05:21:36;7.00;99.90
5881;DHT22;2966;52.598;10.928;2023-04-15T05:24:03;7.10;99.90
5881;DHT22;2966;52.598;10.928;2023-04-15T05:26:31;7.10;99.90
5881;DHT22;2966;52.598;10.928;2023-04-15T05:28:58;7.10;99.90
5881;DHT22;2966;52.598;10.928;2023-04-15T05:31:25;7.10;99.90
5881;DHT22;2966;52.598;10.928;2023-04-15T05:33:51;7.10;99.90
5881;DHT22;2966;52.598;10.928;2023-04-15T05:36:18;7.10;99.90
5881;DHT22;2966;52.598;10.928;2023-04-15T05:38:45;7.10;99.90
5881;DHT22;2966;52.598;10.928;2023-04-15T05:41:12;7.10;99.90
5881;DHT22;2966;52.598;10.928;2023-04-15T05:43:43;7.10;99.90
5881;DHT22;2966;52.598;10.928;2023-04-15T05:46:09;7.20;99.90
5881;DHT22;2966;52.598;10.928;2023-04-15T05:48:36;7.20;99.90
5881;DHT22;2966;52.598;10.928;2023-04-15T05:51:03;7.20;99.90
5881;DHT22;2966;52.598;10.928;2023-04-15T05:53:30;7.20;99.90
5881;DHT22;2966;52.598;10.928;2023-04-15T05:55:57;7.20;99.90
5881;DHT22;2966;52.598;10.928;2023-04-15T05:58:23;7.20;99.90
5881;DHT22;2966;52.598;10.928;2023-04-15T06:00:52;7.30;99.90
5881;DHT22;2966;52.598;10.928;2023-04-15T06:03:19;7.30;99.90
5881;DHT22;2966;52.598;10.928;2023-04-15T06:05:46;7.30;99.90
5881;DHT22;2966;52.598;10.928;2023-04-15T06:08:12;7.30;99.90
5881;DHT22;2966;52.598;10.928;2023-04-15T06:10:39;7.30;99.90
5881;DHT22;2966;52.598;10.928;2023-04-15T06:13:06;7.30;99.90
5881;DHT22;2966;52.598;10.928;2023-04-15T06:15:33;7.30;99.90
5881;DHT22;2966;52.598;10.928;2023-04-15T06:18:01;7.30;99.90
5881;DHT22;2966;52.598;10.928;2023-04-15T06:20:31;7.30;99.90
5881;DHT22;2966;52.598;10.928;2023-04-15T06:22:57;7.30;99.90
5881;DHT22;2966;52.598;10.928;2023-04-15T06:25:24;7.40;99.90
5881;DHT22;2966;52.598;10.928;2023-04-15T06:27:51;7.30;99.90
5881;DHT22;2966;52.598;10.928;2023-04-15T06:30:18;7.40;99.90
5881;DHT22;2966;52.598;10.928;2023-04-15T06:32:45;7.30;99.90
5881;DHT22;2966;52.598;10.928;2023-04-15T06:35:13;7.40;99.90
5881;DHT22;2966;52.598;10.928;2023-04-15T06:37:40;7.40;99.90
5881;DHT22;2966;52.598;10.928;2023-04-15T06:40:08;7.40;99.90
5881;DHT22;2966;52.598;10.928;2023-04-15T06:42:35;7.40;99.90
5881;DHT22;2966;52.598;10.928;2023-04-15T06:45:06;7.40;99.90
5881;DHT22;2966;52.598;10.928;2023-04-15T06:47:33;7.30;99.90
5881;DHT22;2966;52.598;10.928;2023-04-15T06:50:00;7.40;99.90
5881;DHT22;2966;52.598;10.928;2023-04-15T06:52:28;7.40;99.90
5881;DHT22;2966;52.598;10.928;2023-04-15T06:54:57;7.40;99.90
5881;DHT22;2966;52.598;10.928;2023-04-15T06:57:25;7.40;99.90
5881;DHT22;2966;52.598;10.928;2023-04-15T06:59:53;7.40;99.90
5881;DHT22;2966;52.598;10.928;2023-04-15T07:02:20;7.40;99.90
5881;DHT22;2966;52.598;10.928;2023-04-15T07:04:47;7.40;99.90
5881;DHT22;2966;52.598;10.928;2023-04-15T07:07:16;7.50;99.90
5881;DHT22;2966;52.598;10.928;2023-04-15T07:09:44;7.50;99.90
5881;DHT22;2966;52.598;10.928;2023-04-15T07:12:10;7.50;99.90
5881;DHT22;2966;52.598;10.928;2023-04-15T07:14:37;7.50;99.90
5881;DHT22;2966;52.598;10.928;2023-04-15T07:17:04;7.50;99.90
5881;DHT22;2966;52.598;10.928;2023-04-15T07:19:31;7.50;99.90
5881;DHT22;2966;52.598;10.928;2023-04-15T07:21:57;7.50;99.90
5881;DHT22;2966;52.598;10.928;2023-04-15T07:24:24;7.50;99.90
5881;DHT22;2966;52.598;10.928;2023-04-15T07:26:52;7.50;99.90
5881;DHT22;2966;52.598;10.928;2023-04-15T07:29:20;7.50;99.90
5881;DHT22;2966;52.598;10.928;2023-04-15T07:31:47;7.50;99.90
5881;DHT22;2966;52.598;10.928;2023-04-15T07:34:14;7.50;99.90
5881;DHT22;2966;52.598;10.928;2023-04-15T07:36:40;7.50;99.90
5881;DHT22;2966;52.598;10.928;2023-04-15T07:39:07;7.60;99.90
5881;DHT22;2966;52.598;10.928;2023-04-15T07:41:34;7.60;99.90
5881;DHT22;2966;52.598;10.928;2023-04-15T07:44:06;7.60;99.90
5881;DHT22;2966;52.598;10.928;2023-04-15T07:46:32;7.70;99.90
5881;DHT22;2966;52.598;10.928;2023-04-15T07:48:59;7.60;99.90
5881;DHT22;2966;52.598;10.928;2023-04-15T07:51:26;7.70;99.90
5881;DHT22;2966;52.598;10.928;2023-04-15T07:53:53;7.70;99.90
5881;DHT22;2966;52.598;10.928;2023-04-15T07:56:20;7.70;99.90
5881;DHT22;2966;52.598;10.928;2023-04-15T07:58:47;7.70;99.90
5881;DHT22;2966;52.598;10.928;2023-04-15T08:01:15;7.80;99.90
5881;DHT22;2966;52.598;10.928;2023-04-15T08:03:42;7.70;99.90
5881;DHT22;2966;52.598;10.928;2023-04-15T08:06:08;7.70;99.90
5881;DHT22;2966;52.598;10.928;2023-04-15T08:08:35;7.70;99.90
5881;DHT22;2966;52.598;10.928;2023-04-15T08:11:02;7.70;99.90
5881;DHT22;2966;52.598;10.928;2023-04-15T08:13:29;7.60;99.90
5881;DHT22;2966;52.598;10.928;2023-04-15T08:16:12;7.60;99.90
5881;DHT22;2966;52.598;10.928;2023-04-15T08:18:40;7.70;99.90
5881;DHT22;2966;52.598;10.928;2023-04-15T08:21:07;7.70;99.90
5881;DHT22;2966;52.598;10.928;2023-04-15T08:23:34;7.80;99.90
5881;DHT22;2966;52.598;10.928;2023-04-15T08:26:00;7.80;99.90
5881;DHT22;2966;52.598;10.928;2023-04-15T08:28:27;7.80;99.90
5881;DHT22;2966;52.598;10.928;2023-04-15T08:30:54;7.80;99.90
5881;DHT22;2966;52.598;10.928;2023-04-15T08:33:24;7.80;99.90
5881;DHT22;2966;52.598;10.928;2023-04-15T08:35:52;7.80;99.90
5881;DHT22;2966;52.598;10.928;2023-04-15T08:38:18;7.80;99.90
5881;DHT22;2966;52.598;10.928;2023-04-15T08:40:45;7.80;99.90
5881;DHT22;2966;52.598;10.928;2023-04-15T08:43:15;7.80;99.90
5881;DHT22;2966;52.598;10.928;2023-04-15T08:45:44;7.80;99.90
5881;DHT22;2966;52.598;10.928;2023-04-15T08:48:14;7.80;99.90
5881;DHT22;2966;52.598;10.928;2023-04-15T08:50:42;7.80;99.90
5881;DHT22;2966;52.598;10.928;2023-04-15T08:53:10;7.80;99.90
5881;DHT22;2966;52.598;10.928;2023-04-15T08:55:42;7.90;99.90
5881;DHT22;2966;52.598;10.928;2023-04-15T08:58:10;7.90;99.90
5881;DHT22;2966;52.598;10.928;2023-04-15T09:00:37;8.00;99.90
5881;DHT22;2966;52.598;10.928;2023-04-15T09:03:04;8.00;99.90
5881;DHT22;2966;52.598;10.928;2023-04-15T09:05:32;8.10;99.90
5881;DHT22;2966;52.598;10.928;2023-04-15T09:07:59;8.00;99.90
5881;DHT22;2966;52.598;10.928;2023-04-15T09:10:28;8.00;99.90
5881;DHT22;2966;52.598;10.928;2023-04-15T09:12:55;8.00;99.90
5881;DHT22;2966;52.598;10.928;2023-04-15T09:15:27;8.10;99.90
5881;DHT22;2966;52.598;10.928;2023-04-15T09:17:54;8.10;99.90
5881;DHT22;2966;52.598;10.928;2023-04-15T09:20:22;8.10;99.90
5881;DHT22;2966;52.598;10.928;2023-04-15T09:22:49;8.20;99.90
5881;DHT22;2966;52.598;10.928;2023-04-15T09:25:28;8.30;99.90
5881;DHT22;2966;52.598;10.928;2023-04-15T09:27:56;8.30;99.90
5881;DHT22;2966;52.598;10.928;2023-04-15T09:30:27;8.40;99.90
5881;DHT22;2966;52.598;10.928;2023-04-15T09:32:55;8.40;99.90
5881;DHT22;2966;52.598;10.928;2023-04-15T09:35:23;8.40;99.90
5881;DHT22;2966;52.598;10.928;2023-04-15T09:37:51;8.50;99.90
5881;DHT22;2966;52.598;10.928;2023-04-15T09:40:32;8.50;99.90
5881;DHT22;2966;52.598;10.928;2023-04-15T09:42:59;8.50;99.90
5881;DHT22;2966;52.598;10.928;2023-04-15T09:45:27;8.50;99.90
5881;DHT22;2966;52.598;10.928;2023-04-15T09:47:56;8.50;99.90
5881;DHT22;2966;52.598;10.928;2023-04-15T09:50:26;8.50;99.90
5881;DHT22;2966;52.598;10.928;2023-04-15T09:52:53;8.60;99.90
5881;DHT22;2966;52.598;10.928;2023-04-15T09:55:20;8.60;99.90
5881;DHT22;2966;52.598;10.928;2023-04-15T09:57:48;8.50;99.90
5881;DHT22;2966;52.598;10.928;2023-04-15T10:00:15;8.50;99.90
5881;DHT22;2966;52.598;10.928;2023-04-15T10:02:42;8.60;99.90
5881;DHT22;2966;52.598;10.928;2023-04-15T10:05:10;8.50;99.90
5881;DHT22;2966;52.598;10.928;2023-04-15T10:07:38;8.60;99.90
5881;DHT22;2966;52.598;10.928;2023-04-15T10:10:07;8.50;99.90
5881;DHT22;2966;52.598;10.928;2023-04-15T10:12:36;8.40;99.90
5881;DHT22;2966;52.598;10.928;2023-04-15T10:15:05;8.60;99.90
5881;DHT22;2966;52.598;10.928;2023-04-15T10:17:36;8.60;99.90
5881;DHT22;2966;52.598;10.928;2023-04-15T10:20:07;8.50;99.90
5881;DHT22;2966;52.598;10.928;2023-04-15T10:22:37;8.50;99.90
5881;DHT22;2966;52.598;10.928;2023-04-15T10:25:05;8.50;99.90
5881;DHT22;2966;52.598;10.928;2023-04-15T10:27:31;8.50;99.90
5881;DHT22;2966;52.598;10.928;2023-04-15T10:29:59;8.50;99.90
5881;DHT22;2966;52.598;10.928;2023-04-15T10:32:27;8.50;99.90
5881;DHT22;2966;52.598;10.928;2023-04-15T10:34:56;8.50;99.90
5881;DHT22;2966;52.598;10.928;2023-04-15T10:37:33;8.60;99.90
5881;DHT22;2966;52.598;10.928;2023-04-15T10:40:02;8.60;99.90
5881;DHT22;2966;52.598;10.928;2023-04-15T10:42:48;8.50;99.90
5881;DHT22;2966;52.598;10.928;2023-04-15T10:45:16;8.50;99.90
5881;DHT22;2966;52.598;10.928;2023-04-15T10:47:45;8.50;99.90
5881;DHT22;2966;52.598;10.928;2023-04-15T10:50:11;8.60;99.90
5881;DHT22;2966;52.598;10.928;2023-04-15T10:52:39;8.60;99.90
5881;DHT22;2966;52.598;10.928;2023-04-15T10:55:12;8.60;99.90
5881;DHT22;2966;52.598;10.928;2023-04-15T10:57:41;8.70;99.90
5881;DHT22;2966;52.598;10.928;2023-04-15T11:00:12;8.80;99.90
5881;DHT22;2966;52.598;10.928;2023-04-15T11:02:40;8.80;99.90
5881;DHT22;2966;52.598;10.928;2023-04-15T11:05:09;8.90;99.90
5881;DHT22;2966;52.598;10.928;2023-04-15T11:07:41;9.10;99.90
5881;DHT22;2966;52.598;10.928;2023-04-15T11:13:18;9.00;99.90
5881;DHT22;2966;52.598;10.928;2023-04-15T11:15:47;8.90;99.90
5881;DHT22;2966;52.598;10.928;2023-04-15T11:18:16;9.10;99.90
5881;DHT22;2966;52.598;10.928;2023-04-15T11:20:49;9.10;99.90
5881;DHT22;2966;52.598;10.928;2023-04-15T11:23:17;9.20;99.90
5881;DHT22;2966;52.598;10.928;2023-04-15T11:25:44;9.30;99.90
5881;DHT22;2966;52.598;10.928;2023-04-15T11:28:12;9.30;99.90
5881;DHT22;2966;52.598;10.928;2023-04-15T11:30:39;9.30;99.90
5881;DHT22;2966;52.598;10.928;2023-04-15T11:33:07;9.30;99.90
5881;DHT22;2966;52.598;10.928;2023-04-15T11:35:37;9.40;99.90
5881;DHT22;2966;52.598;10.928;2023-04-15T11:38:09;9.70;99.90
5881;DHT22;2966;52.598;10.928;2023-04-15T11:40:36;9.80;99.90
5881;DHT22;2966;52.598;10.928;2023-04-15T11:43:04;10.00;99.90
5881;DHT22;2966;52.598;10.928;2023-04-15T11:45:31;10.20;99.90
5881;DHT22;2966;52.598;10.928;2023-04-15T11:48:05;10.40;99.90
5881;DHT22;2966;52.598;10.928;2023-04-15T11:50:32;10.30;99.90
5881;DHT22;2966;52.598;10.928;2023-04-15T11:53:00;10.40;99.90
5881;DHT22;2966;52.598;10.928;2023-04-15T11:55:29;10.60;99.90
5881;DHT22;2966;52.598;10.928;2023-04-15T11:58:09;10.70;99.90
5881;DHT22;2966;52.598;10.928;2023-04-15T12:00:36;10.70;99.90
5881;DHT22;2966;52.598;10.928;2023-04-15T12:03:16;10.70;99.90
5881;DHT22;2966;52.598;10.928;2023-04-15T12:06:03;10.80;99.90
5881;DHT22;2966;52.598;10.928;2023-04-15T12:09:02;10.70;99.90
5881;DHT22;2966;52.598;10.928;2023-04-15T12:11:42;10.70;99.90
5881;DHT22;2966;52.598;10.928;2023-04-15T12:14:11;10.90;99.90
5881;DHT22;2966;52.598;10.928;2023-04-15T12:16:40;10.90;99.90
5881;DHT22;2966;52.598;10.928;2023-04-15T12:19:09;10.80;99.90
5881;DHT22;2966;52.598;10.928;2023-04-15T12:21:38;10.90;99.90
5881;DHT22;2966;52.598;10.928;2023-04-15T12:24:06;10.90;99.90
5881;DHT22;2966;52.598;10.928;2023-04-15T12:26:41;11.00;99.90
5881;DHT22;2966;52.598;10.928;2023-04-15T12:29:12;11.00;99.90
5881;DHT22;2966;52.598;10.928;2023-04-15T12:31:50;11.30;99.90
5881;DHT22;2966;52.598;10.928;2023-04-15T12:34:17;11.40;99.90
5881;DHT22;2966;52.598;10.928;2023-04-15T12:36:45;11.60;99.90
5881;DHT22;2966;52.598;10.928;2023-04-15T12:39:12;11.80;99.90
5881;DHT22;2966;52.598;10.928;2023-04-15T12:41:38;12.00;99.90
5881;DHT22;2966;52.598;10.928;2023-04-15T12:44:06;12.20;99.90
5881;DHT22;2966;52.598;10.928;2023-04-15T12:46:34;12.30;99.90
5881;DHT22;2966;52.598;10.928;2023-04-15T12:49:01;12.40;99.90
5881;DHT22;2966;52.598;10.928;2023-04-15T12:51:28;12.40;99.90
5881;DHT22;2966;52.598;10.928;2023-04-15T12:53:56;12.50;99.90
5881;DHT22;2966;52.598;10.928;2023-04-15T12:56:22;12.30;99.90
5881;DHT22;2966;52.598;10.928;2023-04-15T12:58:49;12.20;99.90
5881;DHT22;2966;52.598;10.928;2023-04-15T13:01:16;12.00;99.90
5881;DHT22;2966;52.598;10.928;2023-04-15T13:03:44;11.90;99.90
5881;DHT22;2966;52.598;10.928;2023-04-15T13:06:11;11.90;99.90
5881;DHT22;2966;52.598;10.928;2023-04-15T13:08:38;11.90;99.90
5881;DHT22;2966;52.598;10.928;2023-04-15T13:11:06;11.80;99.90
5881;DHT22;2966;52.598;10.928;2023-04-15T13:13:32;11.70;99.90
5881;DHT22;2966;52.598;10.928;2023-04-15T13:15:59;11.60;99.90
5881;DHT22;2966;52.598;10.928;2023-04-15T13:18:26;11.60;99.90
5881;DHT22;2966;52.598;10.928;2023-04-15T13:20:54;11.60;99.90
5881;DHT22;2966;52.598;10.928;2023-04-15T13:23:21;11.60;99.90
5881;DHT22;2966;52.598;10.928;2023-04-15T13:25:48;11.50;99.90
5881;DHT22;2966;52.598;10.928;2023-04-15T13:28:15;11.60;99.90
5881;DHT22;2966;52.598;10.928;2023-04-15T13:30:41;11.60;99.90
5881;DHT22;2966;52.598;10.928;2023-04-15T13:33:08;11.60;99.90
5881;DHT22;2966;52.598;10.928;2023-04-15T13:35:35;11.60;99.90
5881;DHT22;2966;52.598;10.928;2023-04-15T13:38:03;11.70;99.90
5881;DHT22;2966;52.598;10.928;2023-04-15T13:40:29;11.70;99.90
5881;DHT22;2966;52.598;10.928;2023-04-15T13:42:56;11.70;99.90
5881;DHT22;2966;52.598;10.928;2023-04-15T13:45:25;11.70;99.90
5881;DHT22;2966;52.598;10.928;2023-04-15T13:47:52;11.70;99.90
5881;DHT22;2966;52.598;10.928;2023-04-15T13:50:19;11.70;99.90
5881;DHT22;2966;52.598;10.928;2023-04-15T13:52:45;11.70;99.90
5881;DHT22;2966;52.598;10.928;2023-04-15T13:55:13;11.70;99.90
5881;DHT22;2966;52.598;10.928;2023-04-15T13:57:40;11.70;99.90
5881;DHT22;2966;52.598;10.928;2023-04-15T14:00:08;11.60;99.90
5881;DHT22;2966;52.598;10.928;2023-04-15T14:02:35;11.70;99.90
5881;DHT22;2966;52.598;10.928;2023-04-15T14:05:01;11.70;99.90
5881;DHT22;2966;52.598;10.928;2023-04-15T14:07:28;11.60;99.90
5881;DHT22;2966;52.598;10.928;2023-04-15T14:09:55;11.70;99.90
5881;DHT22;2966;52.598;10.928;2023-04-15T14:12:23;11.70;99.90
5881;DHT22;2966;52.598;10.928;2023-04-15T14:14:50;11.60;99.90
5881;DHT22;2966;52.598;10.928;2023-04-15T14:17:17;11.60;99.90
5881;DHT22;2966;52.598;10.928;2023-04-15T14:19:43;11.60;99.90
5881;DHT22;2966;52.598;10.928;2023-04-15T14:22:10;11.70;99.90
5881;DHT22;2966;52.598;10.928;2023-04-15T14:24:37;11.60;99.90
5881;DHT22;2966;52.598;10.928;2023-04-15T14:27:04;11.60;99.90
5881;DHT22;2966;52.598;10.928;2023-04-15T14:29:32;11.60;99.90
5881;DHT22;2966;52.598;10.928;2023-04-15T14:31:58;11.60;99.90
5881;DHT22;2966;52.598;10.928;2023-04-15T14:34:25;11.60;99.90
5881;DHT22;2966;52.598;10.928;2023-04-15T14:36:52;11.60;99.90
5881;DHT22;2966;52.598;10.928;2023-04-15T14:39:18;11.60;99.90
5881;DHT22;2966;52.598;10.928;2023-04-15T14:41:45;11.60;99.90
5881;DHT22;2966;52.598;10.928;2023-04-15T14:44:12;11.60;99.90
5881;DHT22;2966;52.598;10.928;2023-04-15T14:46:40;11.70;99.90
5881;DHT22;2966;52.598;10.928;2023-04-15T14:49:07;11.70;99.90
5881;DHT22;2966;52.598;10.928;2023-04-15T14:51:34;11.70;99.90
5881;DHT22;2966;52.598;10.928;2023-04-15T14:54:00;11.70;99.90
5881;DHT22;2966;52.598;10.928;2023-04-15T14:56:27;11.80;99.90
5881;DHT22;2966;52.598;10.928;2023-04-15T14:58:53;11.80;99.90
5881;DHT22;2966;52.598;10.928;2023-04-15T15:01:20;11.80;99.90
5881;DHT22;2966;52.598;10.928;2023-04-15T15:03:48;11.70;99.90
5881;DHT22;2966;52.598;10.928;2023-04-15T15:06:15;11.70;99.90
5881;DHT22;2966;52.598;10.928;2023-04-15T15:08:42;11.70;99.90
5881;DHT22;2966;52.598;10.928;2023-04-15T15:11:08;11.70;99.90
5881;DHT22;2966;52.598;10.928;2023-04-15T15:13:35;11.60;99.90
5881;DHT22;2966;52.598;10.928;2023-04-15T15:16:02;11.70;99.90
5881;DHT22;2966;52.598;10.928;2023-04-15T15:18:29;11.70;99.90
5881;DHT22;2966;52.598;10.928;2023-04-15T15:20:57;11.60;99.90
5881;DHT22;2966;52.598;10.928;2023-04-15T15:23:23;11.60;99.90
5881;DHT22;2966;52.598;10.928;2023-04-15T15:25:50;11.60;99.90
5881;DHT22;2966;52.598;10.928;2023-04-15T15:28:17;11.60;99.90
5881;DHT22;2966;52.598;10.928;2023-04-15T15:30:44;11.60;99.90
5881;DHT22;2966;52.598;10.928;2023-04-15T15:33:10;11.60;99.90
5881;DHT22;2966;52.598;10.928;2023-04-15T15:35:38;11.60;99.90
5881;DHT22;2966;52.598;10.928;2023-04-15T15:38:06;11.60;99.90
5881;DHT22;2966;52.598;10.928;2023-04-15T15:40:33;11.60;99.90
5881;DHT22;2966;52.598;10.928;2023-04-15T15:43:00;11.60;99.90
5881;DHT22;2966;52.598;10.928;2023-04-15T15:45:26;11.60;99.90
5881;DHT22;2966;52.598;10.928;2023-04-15T15:47:53;11.60;99.90
5881;DHT22;2966;52.598;10.928;2023-04-15T15:50:21;11.60;99.90
5881;DHT22;2966;52.598;10.928;2023-04-15T15:52:48;11.50;99.90
5881;DHT22;2966;52.598;10.928;2023-04-15T15:55:16;11.60;99.90
5881;DHT22;2966;52.598;10.928;2023-04-15T15:57:43;11.50;99.90
5881;DHT22;2966;52.598;10.928;2023-04-15T16:00:11;11.50;99.90
5881;DHT22;2966;52.598;10.928;2023-04-15T16:02:37;11.50;99.90
5881;DHT22;2966;52.598;10.928;2023-04-15T16:05:05;11.50;99.90